Palanca Rio — V7QS4 — position and weather

sailwx.info

Track history (hours):
 
Tides and Currents Weather Stations Pressure Air Temp Water Temp Dewpoint Dewpoint Depression Visibility Wind Speed Wind Dir Waves Ship Positions

Palanca Rio

Last reported at 2018-May-20 18:32 UTC. Time now 2018-May-22 19:34 UTC.
Position N 39°05' W 075°11'.

Length 133 m; draft 5.8 m.

Type: Ship. MMSI: 538006907.

Date/timePositionNaut miles runAvg speedWind from/ knotsBaromVisibWave heightAir tempDewpointWater temp
2018-May-20 18:32N 39°05' W 075°11'012.9
2018-May-20 18:30N 39°05' W 075°12'612.6
2018-May-20 18:00N 39°11' W 075°16'612.1
2018-May-20 17:30N 39°16' W 075°20'612.2
2018-May-20 17:00N 39°20' W 075°26'613.0
2018-May-20 16:30N 39°25' W 075°31'612.0
2018-May-20 16:00N 39°31' W 075°33'4 7.6
2018-May-20 15:30N 39°33' W 075°37'5 9.9
2018-May-20 15:00N 39°33' W 075°44'5 9.7
2018-May-20 14:30N 39°32' W 075°50'4 8.8
2018-May-20 14:01N 39°30' W 075°55'612.2
2018-May-20 13:30N 39°26' W 076°01'612.8
2018-May-20 13:00N 39°22' W 076°07'612.6
2018-May-20 12:30N 39°18' W 076°13'611.7
2018-May-20 12:00N 39°12' W 076°15'510.9
2018-May-20 11:30N 39°09' W 076°21'612.2
2018-May-20 11:00N 39°11' W 076°28'5 9.3
2018-May-20 10:30N 39°13' W 076°34'1 0.7
2018-May-20 09:05N 39°13' W 076°35'0 0.0
2018-May-20 08:56N 39°13' W 076°35'0 0.0
2018-May-20 08:26N 39°13' W 076°35'0 0.0
2018-May-20 07:59N 39°13' W 076°35'0 0.0
2018-May-20 07:26N 39°13' W 076°35'0 0.0
2018-May-20 06:56N 39°13' W 076°35'0 0.0
2018-May-20 06:26N 39°13' W 076°35'0 0.0
2018-May-20 05:59N 39°13' W 076°35'0 0.0
2018-May-20 05:29N 39°13' W 076°35'0 0.0
2018-May-20 00:56N 39°13' W 076°35'0 0.0
2018-May-20 00:20N 39°13' W 076°35'0 0.0
2018-May-19 23:59N 39°13' W 076°35'0 0.0
2018-May-19 23:20N 39°13' W 076°35'0 0.0
2018-May-19 22:56N 39°13' W 076°35'0 0.0
2018-May-19 22:26N 39°13' W 076°35'0 0.0
2018-May-19 21:50N 39°13' W 076°35'0 0.0
2018-May-19 21:26N 39°13' W 076°35'0 0.0
2018-May-19 20:56N 39°13' W 076°35'0 0.0
2018-May-19 20:26N 39°13' W 076°35'0 0.0
2018-May-19 19:56N 39°13' W 076°35'0 0.5
2018-May-19 19:30N 39°13' W 076°35'1 2.0
2018-May-19 19:00N 39°13' W 076°34'1 2.1
2018-May-19 18:30N 39°14' W 076°33'0 0.7
2018-May-19 17:58N 39°14' W 076°33'0 0.0
2018-May-19 17:28N 39°14' W 076°33'0 0.0
2018-May-19 16:58N 39°14' W 076°33'0 0.0
2018-May-19 16:28N 39°14' W 076°33'0 0.1
2018-May-19 15:58N 39°15' W 076°33'0 0.1
2018-May-19 15:28N 39°15' W 076°33'0 0.1
2018-May-19 14:58N 39°15' W 076°33'0 0.1
2018-May-19 14:28N 39°15' W 076°33'0 0.0
2018-May-19 13:58N 39°15' W 076°33'0 0.0
2018-May-19 13:25N 39°15' W 076°33'0 0.0
2018-May-19 12:58N 39°15' W 076°33'0 0.0
2018-May-19 12:28N 39°15' W 076°33'0 0.1
2018-May-19 11:58N 39°15' W 076°33'0 0.0
2018-May-19 11:28N 39°15' W 076°33'0 0.0
2018-May-19 10:58N 39°15' W 076°33'0 0.0
2018-May-19 10:28N 39°15' W 076°33'0 0.0
2018-May-19 09:58N 39°15' W 076°33'0 0.0
2018-May-19 09:28N 39°15' W 076°33'0 0.0
2018-May-19 08:58N 39°15' W 076°33'0 0.0
2018-May-19 08:28N 39°15' W 076°33'0 0.0
2018-May-19 07:58N 39°15' W 076°33'0 0.0
2018-May-19 07:28N 39°15' W 076°33'0 0.0
2018-May-19 06:58N 39°15' W 076°33'0 0.2
2018-May-19 06:31N 39°14' W 076°33'5 9.5
2018-May-19 06:00N 39°11' W 076°28'712.7
2018-May-19 05:27N 39°09' W 076°20'612.8
2018-May-19 04:57N 39°14' W 076°15'612.6
2018-May-19 04:30N 39°19' W 076°13'612.6
2018-May-19 04:01N 39°23' W 076°06'612.3
2018-May-19 03:31N 39°27' W 075°60'510.9
2018-May-19 03:00N 39°30' W 075°55'4 9.0
2018-May-19 02:31N 39°32' W 075°49'4 8.2
2018-May-19 02:00N 39°32' W 075°44'5 9.5
2018-May-19 01:30N 39°33' W 075°38'4 8.5
2018-May-19 01:00N 39°33' W 075°33'510.9
2018-May-19 00:30N 39°27' W 075°34'611.2
2018-May-19 00:00N 39°23' W 075°29'611.2
2018-May-18 23:30N 39°19' W 075°24'510.3
2018-May-18 23:00N 39°15' W 075°20'510.9
2018-May-18 22:30N 39°11' W 075°16'611.9
2018-May-18 22:00N 39°06' W 075°12'611.6
2018-May-18 21:30N 39°00' W 075°09'39 9.0
2018-May-18 17:11N 38°59' W 074°18'20312.5
2018-May-18 00:57N 41°30' W 071°21'511.9
2018-May-18 00:30N 41°35' W 071°18'612.5
2018-May-18 00:00N 41°41' W 071°19'510.8
2018-May-17 23:30N 41°46' W 071°22'3 5.0
2018-May-17 22:58N 41°49' W 071°24'0 0.0
2018-May-17 08:40N 41°48' W 071°24'1 4.2
2018-May-17 08:26N 41°48' W 071°23'3 7.1
2018-May-17 08:00N 41°45' W 071°22'510.9
2018-May-17 07:30N 41°40' W 071°19'43 6.0
2018-May-17 00:20N 42°02' W 070°29'612.6
2018-May-16 23:51N 42°08' W 070°29'513.2
2018-May-16 23:27N 42°11' W 070°24'613.1
2018-May-16 23:00N 42°15' W 070°18'713.0
2018-May-16 22:30N 42°19' W 070°11'713.3
2018-May-16 22:00N 42°23' W 070°04'713.3
2018-May-16 21:30N 42°27' W 069°57'713.4
2018-May-16 21:00N 42°32' W 069°50'713.6
2018-May-16 20:30N 42°36' W 069°43'713.5
2018-May-16 20:00N 42°40' W 069°36'613.0
2018-May-16 19:30N 42°44' W 069°29'713.0
2018-May-16 18:59N 42°49' W 069°22'712.9
2018-May-16 18:25N 42°53' W 069°14'712.9
2018-May-16 17:52N 42°58' W 069°07'  
Track history (hours):
 
Tides and Currents Weather Stations Pressure Air Temp Water Temp Dewpoint Dewpoint Depression Visibility Wind Speed Wind Dir Waves Ship Positions

Palanca Rio

Last reported at 2018-May-20 18:32 UTC. Time now 2018-May-22 19:34 UTC.
Position N 39°05' W 075°11'.

Length 133 m; draft 5.8 m.

Type: Ship. MMSI: 538006907.

Date/timePositionNaut miles runAvg speedWind from/ knotsBaromVisibWave heightAir tempDewpointWater temp
2018-May-20 18:32N 39°05' W 075°11'012.9
2018-May-20 18:30N 39°05' W 075°12'612.6
2018-May-20 18:00N 39°11' W 075°16'612.1
2018-May-20 17:30N 39°16' W 075°20'612.2
2018-May-20 17:00N 39°20' W 075°26'613.0
2018-May-20 16:30N 39°25' W 075°31'612.0
2018-May-20 16:00N 39°31' W 075°33'4 7.6
2018-May-20 15:30N 39°33' W 075°37'5 9.9
2018-May-20 15:00N 39°33' W 075°44'5 9.7
2018-May-20 14:30N 39°32' W 075°50'4 8.8
2018-May-20 14:01N 39°30' W 075°55'612.2
2018-May-20 13:30N 39°26' W 076°01'612.8
2018-May-20 13:00N 39°22' W 076°07'612.6
2018-May-20 12:30N 39°18' W 076°13'611.7
2018-May-20 12:00N 39°12' W 076°15'510.9
2018-May-20 11:30N 39°09' W 076°21'612.2
2018-May-20 11:00N 39°11' W 076°28'5 9.3
2018-May-20 10:30N 39°13' W 076°34'1 0.7
2018-May-20 09:05N 39°13' W 076°35'0 0.0
2018-May-20 08:56N 39°13' W 076°35'0 0.0
2018-May-20 08:26N 39°13' W 076°35'0 0.0
2018-May-20 07:59N 39°13' W 076°35'0 0.0
2018-May-20 07:26N 39°13' W 076°35'0 0.0
2018-May-20 06:56N 39°13' W 076°35'0 0.0
2018-May-20 06:26N 39°13' W 076°35'0 0.0
2018-May-20 05:59N 39°13' W 076°35'0 0.0
2018-May-20 05:29N 39°13' W 076°35'0 0.0
2018-May-20 00:56N 39°13' W 076°35'0 0.0
2018-May-20 00:20N 39°13' W 076°35'0 0.0
2018-May-19 23:59N 39°13' W 076°35'0 0.0
2018-May-19 23:20N 39°13' W 076°35'0 0.0
2018-May-19 22:56N 39°13' W 076°35'0 0.0
2018-May-19 22:26N 39°13' W 076°35'0 0.0
2018-May-19 21:50N 39°13' W 076°35'0 0.0
2018-May-19 21:26N 39°13' W 076°35'0 0.0
2018-May-19 20:56N 39°13' W 076°35'0 0.0
2018-May-19 20:26N 39°13' W 076°35'0 0.0
2018-May-19 19:56N 39°13' W 076°35'0 0.5
2018-May-19 19:30N 39°13' W 076°35'1 2.0
2018-May-19 19:00N 39°13' W 076°34'1 2.1
2018-May-19 18:30N 39°14' W 076°33'0 0.7
2018-May-19 17:58N 39°14' W 076°33'0 0.0
2018-May-19 17:28N 39°14' W 076°33'0 0.0
2018-May-19 16:58N 39°14' W 076°33'0 0.0
2018-May-19 16:28N 39°14' W 076°33'0 0.1
2018-May-19 15:58N 39°15' W 076°33'0 0.1
2018-May-19 15:28N 39°15' W 076°33'0 0.1
2018-May-19 14:58N 39°15' W 076°33'0 0.1
2018-May-19 14:28N 39°15' W 076°33'0 0.0
2018-May-19 13:58N 39°15' W 076°33'0 0.0
2018-May-19 13:25N 39°15' W 076°33'0 0.0
2018-May-19 12:58N 39°15' W 076°33'0 0.0
2018-May-19 12:28N 39°15' W 076°33'0 0.1
2018-May-19 11:58N 39°15' W 076°33'0 0.0
2018-May-19 11:28N 39°15' W 076°33'0 0.0
2018-May-19 10:58N 39°15' W 076°33'0 0.0
2018-May-19 10:28N 39°15' W 076°33'0 0.0
2018-May-19 09:58N 39°15' W 076°33'0 0.0
2018-May-19 09:28N 39°15' W 076°33'0 0.0
2018-May-19 08:58N 39°15' W 076°33'0 0.0
2018-May-19 08:28N 39°15' W 076°33'0 0.0
2018-May-19 07:58N 39°15' W 076°33'0 0.0
2018-May-19 07:28N 39°15' W 076°33'0 0.0
2018-May-19 06:58N 39°15' W 076°33'0 0.2
2018-May-19 06:31N 39°14' W 076°33'5 9.5
2018-May-19 06:00N 39°11' W 076°28'712.7
2018-May-19 05:27N 39°09' W 076°20'612.8
2018-May-19 04:57N 39°14' W 076°15'612.6
2018-May-19 04:30N 39°19' W 076°13'612.6
2018-May-19 04:01N 39°23' W 076°06'612.3
2018-May-19 03:31N 39°27' W 075°60'510.9
2018-May-19 03:00N 39°30' W 075°55'4 9.0
2018-May-19 02:31N 39°32' W 075°49'4 8.2
2018-May-19 02:00N 39°32' W 075°44'5 9.5
2018-May-19 01:30N 39°33' W 075°38'4 8.5
2018-May-19 01:00N 39°33' W 075°33'510.9
2018-May-19 00:30N 39°27' W 075°34'611.2
2018-May-19 00:00N 39°23' W 075°29'611.2
2018-May-18 23:30N 39°19' W 075°24'510.3
2018-May-18 23:00N 39°15' W 075°20'510.9
2018-May-18 22:30N 39°11' W 075°16'611.9
2018-May-18 22:00N 39°06' W 075°12'611.6
2018-May-18 21:30N 39°00' W 075°09'39 9.0
2018-May-18 17:11N 38°59' W 074°18'20312.5
2018-May-18 00:57N 41°30' W 071°21'511.9
2018-May-18 00:30N 41°35' W 071°18'612.5
2018-May-18 00:00N 41°41' W 071°19'510.8
2018-May-17 23:30N 41°46' W 071°22'3 5.0
2018-May-17 22:58N 41°49' W 071°24'0 0.0
2018-May-17 08:40N 41°48' W 071°24'1 4.2
2018-May-17 08:26N 41°48' W 071°23'3 7.1
2018-May-17 08:00N 41°45' W 071°22'510.9
2018-May-17 07:30N 41°40' W 071°19'43 6.0
2018-May-17 00:20N 42°02' W 070°29'612.6
2018-May-16 23:51N 42°08' W 070°29'513.2
2018-May-16 23:27N 42°11' W 070°24'613.1
2018-May-16 23:00N 42°15' W 070°18'713.0
2018-May-16 22:30N 42°19' W 070°11'713.3
2018-May-16 22:00N 42°23' W 070°04'713.3
2018-May-16 21:30N 42°27' W 069°57'713.4
2018-May-16 21:00N 42°32' W 069°50'713.6
2018-May-16 20:30N 42°36' W 069°43'713.5
2018-May-16 20:00N 42°40' W 069°36'613.0
2018-May-16 19:30N 42°44' W 069°29'713.0
2018-May-16 18:59N 42°49' W 069°22'712.9
2018-May-16 18:25N 42°53' W 069°14'712.9
2018-May-16 17:52N 42°58' W 069°07'  

Dump ship's entire track history